createdAt,value
2023-05-27T00:00:11.589Z,62.38
2023-05-27T00:01:11.564Z,62.44
2023-05-27T00:02:11.572Z,62.70
2023-05-27T00:03:11.565Z,63.13
2023-05-27T00:04:11.607Z,63.42
2023-05-27T00:05:11.510Z,63.40
2023-05-27T00:06:11.489Z,64.10
2023-05-27T00:07:11.512Z,63.96
2023-05-27T00:08:11.505Z,64.21
2023-05-27T00:09:11.468Z,64.42
2023-05-27T00:10:11.442Z,64.63
2023-05-27T00:11:11.410Z,64.78
2023-05-27T00:12:11.459Z,65.04
2023-05-27T00:13:11.381Z,65.38
2023-05-27T00:14:11.398Z,65.57
2023-05-27T00:15:11.341Z,65.50
2023-05-27T00:16:11.340Z,65.96
2023-05-27T00:17:11.354Z,65.90
2023-05-27T00:18:11.327Z,65.99
2023-05-27T00:19:11.291Z,66.15
2023-05-27T00:20:11.367Z,66.03
2023-05-27T00:21:11.288Z,66.13
2023-05-27T00:22:11.256Z,66.47
2023-05-27T00:23:11.238Z,66.69
2023-05-27T00:24:11.247Z,67.17
2023-05-27T00:25:11.206Z,66.66
2023-05-27T00:26:11.252Z,67.06
2023-05-27T00:27:11.212Z,66.97
2023-05-27T00:28:11.210Z,67.64
2023-05-27T00:29:11.174Z,67.68
2023-05-27T00:30:11.137Z,67.85
2023-05-27T00:31:11.159Z,68.19
2023-05-27T00:32:11.167Z,66.97
2023-05-27T00:33:11.145Z,67.25
2023-05-27T00:34:11.099Z,67.25
2023-05-27T00:35:11.081Z,66.86
2023-05-27T00:36:11.154Z,66.68
2023-05-27T00:37:11.049Z,66.57
2023-05-27T00:38:11.081Z,66.43
2023-05-27T00:39:11.030Z,66.49
2023-05-27T00:40:11.027Z,66.24
2023-05-27T00:41:10.999Z,66.44
2023-05-27T00:42:10.977Z,66.79
2023-05-27T00:43:11.023Z,66.32
2023-05-27T00:44:10.987Z,66.20
2023-05-27T00:45:10.933Z,65.96
2023-05-27T00:46:10.950Z,66.01
2023-05-27T00:47:10.969Z,65.84
2023-05-27T00:48:10.979Z,66.09
2023-05-27T00:49:10.906Z,66.18
2023-05-27T00:50:10.902Z,66.22
2023-05-27T00:51:10.891Z,66.33
2023-05-27T00:52:10.851Z,66.59
2023-05-27T00:53:10.883Z,66.72
2023-05-27T00:54:10.859Z,66.89
2023-05-27T00:55:10.841Z,67.11
2023-05-27T00:56:10.894Z,67.27
2023-05-27T00:57:10.836Z,67.16
2023-05-27T00:58:10.785Z,67.01
2023-05-27T00:59:10.760Z,67.23
2023-05-27T01:00:10.771Z,67.42
2023-05-27T01:01:10.817Z,67.54
2023-05-27T01:02:10.845Z,67.55
2023-05-27T01:03:10.821Z,67.93
2023-05-27T01:04:10.711Z,67.86
2023-05-27T01:05:10.735Z,67.62
2023-05-27T01:06:10.708Z,66.99
2023-05-27T01:07:10.655Z,67.53
2023-05-27T01:08:10.690Z,68.44
2023-05-27T01:09:10.620Z,67.23
2023-05-27T01:10:10.638Z,67.52
2023-05-27T01:11:10.622Z,67.88
2023-05-27T01:12:10.626Z,67.94
2023-05-27T01:13:10.574Z,67.36
2023-05-27T01:14:10.596Z,67.24
2023-05-27T01:15:10.569Z,67.08
2023-05-27T01:16:10.541Z,67.16
2023-05-27T01:17:10.654Z,67.15
2023-05-27T01:18:10.601Z,68.00
2023-05-27T01:19:10.518Z,67.31
2023-05-27T01:20:10.564Z,67.07
2023-05-27T01:21:10.510Z,66.71
2023-05-27T01:22:10.479Z,66.82
2023-05-27T01:23:10.440Z,67.15
2023-05-27T01:24:10.467Z,67.76
2023-05-27T01:25:10.450Z,67.50
2023-05-27T01:26:10.416Z,67.90
2023-05-27T01:27:10.437Z,68.35
2023-05-27T01:28:10.394Z,68.48
2023-05-27T01:29:10.362Z,67.81
2023-05-27T01:30:10.334Z,68.45
2023-05-27T01:31:10.371Z,68.91
2023-05-27T01:32:10.331Z,68.40
2023-05-27T01:33:10.312Z,68.35
2023-05-27T01:34:10.326Z,69.50
2023-05-27T01:35:10.311Z,69.81
2023-05-27T01:36:10.277Z,69.28
2023-05-27T01:37:10.261Z,69.27
2023-05-27T01:38:10.267Z,70.05
2023-05-27T01:39:10.223Z,70.00
2023-05-27T01:40:10.211Z,70.15
2023-05-27T01:41:10.192Z,70.10
2023-05-27T01:42:10.170Z,70.77
2023-05-27T01:43:10.176Z,71.33
2023-05-27T01:44:10.166Z,70.32
2023-05-27T01:45:10.136Z,69.91
2023-05-27T01:46:10.159Z,70.63
2023-05-27T01:47:10.187Z,69.61
2023-05-27T01:48:10.111Z,69.20
2023-05-27T01:49:10.082Z,69.76
2023-05-27T01:50:10.076Z,69.69
2023-05-27T01:51:10.050Z,69.13
2023-05-27T01:52:10.062Z,69.19
2023-05-27T01:53:10.055Z,69.54
2023-05-27T01:54:10.020Z,69.25
2023-05-27T01:55:10.033Z,69.08
2023-05-27T01:56:10.004Z,69.71
2023-05-27T01:57:09.963Z,69.79
2023-05-27T01:58:09.963Z,69.14
2023-05-27T01:59:10.031Z,69.62
2023-05-27T02:00:09.943Z,69.10
2023-05-27T02:01:09.957Z,69.14
2023-05-27T02:02:09.958Z,69.65
2023-05-27T02:03:09.976Z,69.35
2023-05-27T02:04:09.961Z,69.01
2023-05-27T02:05:09.881Z,69.51
2023-05-27T02:06:09.884Z,69.86
2023-05-27T02:07:09.905Z,70.26
2023-05-27T02:08:09.884Z,70.27
2023-05-27T02:09:09.814Z,69.71
2023-05-27T02:10:09.795Z,69.90
2023-05-27T02:11:09.805Z,69.68
2023-05-27T02:12:09.836Z,70.42
2023-05-27T02:13:09.760Z,69.96
2023-05-27T02:14:09.795Z,69.87
2023-05-27T02:15:09.770Z,70.68
2023-05-27T02:16:09.797Z,70.35
2023-05-27T02:17:09.725Z,70.32
2023-05-27T02:18:09.714Z,69.54
2023-05-27T02:19:09.675Z,69.49
2023-05-27T02:20:09.707Z,69.38
2023-05-27T02:21:09.689Z,69.54
2023-05-27T02:22:09.647Z,69.38
2023-05-27T02:23:09.640Z,69.51
2023-05-27T02:24:09.603Z,69.34
2023-05-27T02:25:09.620Z,69.71
2023-05-27T02:26:09.626Z,69.86
2023-05-27T02:27:09.600Z,69.42
2023-05-27T02:28:09.546Z,69.39
2023-05-27T02:29:09.562Z,70.73
2023-05-27T02:30:09.566Z,70.22
2023-05-27T02:31:09.586Z,69.91
2023-05-27T02:32:09.571Z,69.09
2023-05-27T02:33:09.585Z,68.88
2023-05-27T02:34:09.516Z,69.38
2023-05-27T02:35:09.580Z,70.06
2023-05-27T02:36:09.496Z,69.10
2023-05-27T02:37:09.459Z,68.94
2023-05-27T02:38:09.449Z,69.14
2023-05-27T02:39:09.417Z,68.72
2023-05-27T02:40:09.427Z,69.19
2023-05-27T02:41:09.413Z,69.88
2023-05-27T02:42:09.411Z,70.63
2023-05-27T02:43:09.353Z,70.66
2023-05-27T02:44:09.345Z,69.16
2023-05-27T02:45:09.343Z,68.87
2023-05-27T02:46:09.379Z,69.25
2023-05-27T02:47:09.306Z,69.67
2023-05-27T02:48:09.316Z,69.61
2023-05-27T02:49:09.319Z,69.00
2023-05-27T02:50:09.276Z,68.82
2023-05-27T02:51:09.264Z,69.62
2023-05-27T02:52:09.265Z,68.79
2023-05-27T02:53:09.232Z,69.25
2023-05-27T02:54:09.220Z,68.96
2023-05-27T02:55:09.212Z,68.82
2023-05-27T02:56:09.218Z,68.28
2023-05-27T02:57:09.168Z,68.06
2023-05-27T02:58:09.156Z,68.82
2023-05-27T02:59:09.131Z,68.25
2023-05-27T03:00:09.115Z,69.26
2023-05-27T03:01:09.128Z,69.13
2023-05-27T03:02:09.245Z,68.75
2023-05-27T03:03:09.370Z,68.64
2023-05-27T03:04:09.064Z,68.72
2023-05-27T03:05:09.054Z,69.44
2023-05-27T03:06:09.036Z,68.92
2023-05-27T03:07:09.027Z,68.72
2023-05-27T03:08:09.049Z,68.36
2023-05-27T03:09:09.078Z,68.13
2023-05-27T03:10:08.994Z,68.98
2023-05-27T03:11:09.024Z,69.76
2023-05-27T03:12:08.974Z,70.34
2023-05-27T03:13:08.986Z,69.71
2023-05-27T03:14:09.025Z,70.01
2023-05-27T03:15:08.970Z,70.20
2023-05-27T03:16:08.946Z,70.00
2023-05-27T03:17:08.928Z,69.40
2023-05-27T03:18:08.919Z,69.53
2023-05-27T03:19:09.007Z,69.21
2023-05-27T03:20:08.964Z,68.94
2023-05-27T03:21:08.887Z,70.00
2023-05-27T03:22:08.837Z,69.66
2023-05-27T03:23:08.838Z,68.94
2023-05-27T03:24:08.827Z,68.93
2023-05-27T03:25:08.977Z,69.23
2023-05-27T03:26:08.839Z,69.44
2023-05-27T03:27:08.816Z,68.86
2023-05-27T03:28:08.771Z,68.26
2023-05-27T03:29:08.745Z,68.19
2023-05-27T03:30:08.812Z,69.10
2023-05-27T03:31:08.731Z,69.15
2023-05-27T03:32:08.816Z,69.58
2023-05-27T03:33:08.798Z,69.28
2023-05-27T03:34:08.722Z,69.26
2023-05-27T03:35:08.680Z,68.84
2023-05-27T03:36:08.692Z,69.06
2023-05-27T03:37:08.682Z,69.24
2023-05-27T03:38:08.655Z,69.61
2023-05-27T03:39:08.620Z,70.19
2023-05-27T03:40:08.632Z,69.19
2023-05-27T03:41:09.385Z,68.93
2023-05-27T03:42:08.585Z,69.35
2023-05-27T03:43:08.546Z,69.59
2023-05-27T03:44:08.671Z,69.01
2023-05-27T03:45:08.532Z,69.20
2023-05-27T03:46:08.657Z,69.93
2023-05-27T03:47:08.550Z,70.26
2023-05-27T03:48:08.569Z,69.17
2023-05-27T03:49:08.481Z,68.80
2023-05-27T03:50:08.556Z,69.81
2023-05-27T03:51:08.484Z,70.02
2023-05-27T03:52:08.475Z,69.52
2023-05-27T03:53:08.429Z,69.34
2023-05-27T03:54:08.457Z,69.51
2023-05-27T03:55:08.445Z,69.01
2023-05-27T03:56:08.437Z,68.18
2023-05-27T03:57:08.417Z,68.46
2023-05-27T03:58:08.340Z,68.48
2023-05-27T03:59:08.325Z,68.42
2023-05-27T04:00:08.324Z,68.32
2023-05-27T04:01:08.323Z,68.14
2023-05-27T04:02:08.388Z,68.74
2023-05-27T04:03:08.467Z,69.35
2023-05-27T04:04:08.407Z,69.82
2023-05-27T04:05:08.236Z,69.36
2023-05-27T04:06:08.260Z,68.39
2023-05-27T04:07:08.236Z,68.67
2023-05-27T04:08:08.296Z,68.38
2023-05-27T04:09:08.248Z,68.50
2023-05-27T04:10:08.273Z,69.56
2023-05-27T04:11:08.205Z,69.00
2023-05-27T04:12:08.187Z,68.59
2023-05-27T04:13:08.175Z,68.06
2023-05-27T04:14:08.163Z,67.57
2023-05-27T04:15:08.182Z,67.64
2023-05-27T04:16:08.123Z,68.05
2023-05-27T04:17:08.111Z,68.48
2023-05-27T04:18:08.126Z,67.07
2023-05-27T04:19:08.092Z,67.17
2023-05-27T04:20:08.088Z,67.49
2023-05-27T04:21:08.020Z,67.19
2023-05-27T04:22:08.056Z,67.44
2023-05-27T04:23:08.026Z,67.39
2023-05-27T04:24:07.994Z,67.55
2023-05-27T04:25:08.028Z,67.40
2023-05-27T04:26:08.001Z,67.44
2023-05-27T04:27:07.967Z,67.36
2023-05-27T04:28:07.952Z,67.25
2023-05-27T04:29:07.938Z,66.66
2023-05-27T04:30:09.869Z,67.07
2023-05-27T04:31:07.923Z,67.25
2023-05-27T04:32:07.991Z,67.17
2023-05-27T04:33:07.953Z,67.05
2023-05-27T04:34:07.921Z,66.86
2023-05-27T04:35:07.865Z,67.13
2023-05-27T04:36:07.819Z,66.92
2023-05-27T04:37:07.822Z,67.29
2023-05-27T04:38:07.941Z,66.63
2023-05-27T04:39:07.873Z,66.38
2023-05-27T04:40:07.831Z,66.79
2023-05-27T04:41:07.850Z,67.08
2023-05-27T04:42:07.754Z,66.32
2023-05-27T04:43:07.745Z,67.04
2023-05-27T04:44:07.973Z,66.58
2023-05-27T04:45:07.769Z,67.02
2023-05-27T04:46:07.802Z,66.43
2023-05-27T04:47:07.732Z,66.60
2023-05-27T04:48:07.789Z,66.91
2023-05-27T04:49:07.648Z,67.00
2023-05-27T04:50:07.665Z,67.11
2023-05-27T04:51:07.629Z,66.34
2023-05-27T04:52:07.606Z,66.10
2023-05-27T04:53:07.824Z,65.92
2023-05-27T04:54:07.583Z,66.36
2023-05-27T04:55:07.591Z,66.27
2023-05-27T04:56:07.574Z,67.26
2023-05-27T04:57:07.576Z,66.53
2023-05-27T04:58:07.588Z,66.45
2023-05-27T04:59:07.542Z,66.35
2023-05-27T05:00:07.540Z,66.50
2023-05-27T05:01:07.558Z,66.14
2023-05-27T05:02:07.529Z,66.08
2023-05-27T05:03:07.653Z,65.50
2023-05-27T05:04:07.534Z,66.29
2023-05-27T05:05:07.484Z,66.46
2023-05-27T05:06:07.503Z,66.03
2023-05-27T05:07:07.503Z,66.54
2023-05-27T05:08:07.459Z,65.66
2023-05-27T05:09:07.423Z,65.99
2023-05-27T05:10:07.390Z,65.87
2023-05-27T05:11:07.352Z,66.26
2023-05-27T05:12:07.368Z,65.27
2023-05-27T05:13:07.377Z,64.56
2023-05-27T05:14:07.349Z,64.41
2023-05-27T05:15:07.320Z,65.00
2023-05-27T05:16:07.405Z,65.54
2023-05-27T05:17:07.283Z,64.58
2023-05-27T05:18:07.315Z,64.53
2023-05-27T05:19:07.272Z,64.86
2023-05-27T05:20:07.299Z,64.86
2023-05-27T05:21:07.259Z,64.90
2023-05-27T05:22:07.194Z,64.69
2023-05-27T05:23:07.201Z,65.07
2023-05-27T05:24:07.227Z,66.20
2023-05-27T05:25:07.172Z,65.82
2023-05-27T05:26:07.234Z,64.06
2023-05-27T05:27:07.498Z,64.11
2023-05-27T05:28:07.261Z,63.55
2023-05-27T05:29:07.113Z,63.51
2023-05-27T05:30:07.121Z,62.65
2023-05-27T05:31:11.367Z,61.83
2023-05-27T05:32:08.188Z,61.31
2023-05-27T05:33:11.251Z,61.63
2023-05-27T05:34:07.398Z,61.32
2023-05-27T05:35:07.030Z,60.67
2023-05-27T05:36:07.368Z,61.08
2023-05-27T05:37:07.849Z,60.59
2023-05-27T05:38:07.963Z,60.86
2023-05-27T05:39:07.037Z,61.03
2023-05-27T05:40:07.357Z,60.82
2023-05-27T05:41:07.312Z,60.57
2023-05-27T05:42:06.971Z,60.18
2023-05-27T05:43:06.927Z,60.18
2023-05-27T05:44:06.939Z,60.31
2023-05-27T05:45:10.890Z,60.91
2023-05-27T05:46:06.940Z,62.79
2023-05-27T05:47:07.168Z,63.91
2023-05-27T05:48:06.893Z,61.61
2023-05-27T05:49:06.919Z,58.85
2023-05-27T05:50:10.954Z,57.54
2023-05-27T05:51:06.819Z,58.15
2023-05-27T05:52:06.815Z,58.82
2023-05-27T05:53:06.775Z,59.02
2023-05-27T05:54:06.823Z,58.93
2023-05-27T05:55:09.312Z,59.01
2023-05-27T05:56:06.762Z,59.01
2023-05-27T05:57:06.751Z,58.71
2023-05-27T05:58:06.754Z,59.12
2023-05-27T05:59:06.908Z,58.50
2023-05-27T06:00:06.768Z,59.01
2023-05-27T06:01:06.695Z,59.24
2023-05-27T06:02:06.725Z,59.14
2023-05-27T06:03:06.785Z,59.59
2023-05-27T06:04:06.793Z,58.50
2023-05-27T06:05:06.649Z,58.76
2023-05-27T06:06:06.660Z,58.18
2023-05-27T06:07:06.610Z,58.09
2023-05-27T06:08:06.639Z,58.28
2023-05-27T06:09:06.616Z,59.75
2023-05-27T06:10:06.579Z,57.40
2023-05-27T06:11:06.576Z,56.94
2023-05-27T06:12:06.559Z,57.08
2023-05-27T06:13:06.536Z,56.39
2023-05-27T06:14:06.527Z,57.04
2023-05-27T06:15:06.538Z,57.31
2023-05-27T06:16:06.504Z,56.82
2023-05-27T06:17:06.472Z,57.39
2023-05-27T06:18:06.572Z,57.64
2023-05-27T06:19:06.482Z,57.95
2023-05-27T06:20:06.486Z,57.33
2023-05-27T06:21:06.440Z,57.48
2023-05-27T06:22:06.414Z,57.35
2023-05-27T06:23:06.382Z,57.53
2023-05-27T06:24:06.356Z,56.93
2023-05-27T06:25:06.365Z,57.59
2023-05-27T06:26:06.373Z,57.59
2023-05-27T06:27:06.343Z,61.08
2023-05-27T06:28:06.316Z,57.55
2023-05-27T06:29:06.300Z,56.70
2023-05-27T06:30:06.295Z,57.41
2023-05-27T06:31:06.323Z,57.87
2023-05-27T06:32:06.478Z,54.81
2023-05-27T06:33:06.320Z,56.73
2023-05-27T06:34:06.307Z,55.44
2023-05-27T06:35:06.226Z,55.49
2023-05-27T06:36:06.208Z,55.01
2023-05-27T06:37:06.233Z,55.49
2023-05-27T06:38:06.217Z,55.52
2023-05-27T06:39:06.182Z,55.24
2023-05-27T06:40:06.173Z,55.76
2023-05-27T06:41:06.144Z,55.35
2023-05-27T06:42:06.163Z,54.77
2023-05-27T06:43:06.098Z,55.58
2023-05-27T06:44:06.154Z,55.77
2023-05-27T06:45:06.087Z,55.08
2023-05-27T06:46:10.552Z,55.34
2023-05-27T06:47:06.102Z,55.27
2023-05-27T06:48:06.082Z,54.41
2023-05-27T06:49:06.043Z,55.18
2023-05-27T06:50:06.035Z,55.08
2023-05-27T06:51:06.010Z,54.66
2023-05-27T06:52:07.341Z,54.19
2023-05-27T06:53:05.967Z,54.85
2023-05-27T06:54:05.969Z,54.84
2023-05-27T06:55:05.982Z,54.77
2023-05-27T06:56:05.946Z,54.71
2023-05-27T06:57:05.966Z,54.78
2023-05-27T06:58:05.926Z,54.80
2023-05-27T06:59:05.915Z,55.56
2023-05-27T07:00:06.623Z,55.69
2023-05-27T07:01:05.958Z,55.26
2023-05-27T07:02:05.891Z,57.37
2023-05-27T07:03:05.941Z,60.60
2023-05-27T07:04:05.814Z,56.55
2023-05-27T07:05:05.841Z,53.89
2023-05-27T07:06:05.823Z,53.82
2023-05-27T07:07:05.839Z,53.94
2023-05-27T07:08:05.785Z,54.11
2023-05-27T07:09:06.508Z,54.57
2023-05-27T07:10:07.224Z,55.25
2023-05-27T07:11:05.761Z,54.46
2023-05-27T07:12:05.701Z,53.51
2023-05-27T07:13:05.679Z,53.85
2023-05-27T07:14:05.717Z,53.89
2023-05-27T07:15:05.685Z,54.10
2023-05-27T07:16:05.702Z,54.32
2023-05-27T07:17:05.643Z,53.63
2023-05-27T07:18:05.705Z,54.08
2023-05-27T07:19:05.674Z,54.03
2023-05-27T07:20:05.623Z,55.24
2023-05-27T07:21:05.594Z,54.27
2023-05-27T07:22:05.657Z,54.12
2023-05-27T07:23:05.561Z,53.52
2023-05-27T07:24:05.604Z,52.90
2023-05-27T07:25:05.578Z,53.35
2023-05-27T07:26:05.592Z,53.06
2023-05-27T07:27:05.511Z,53.78
2023-05-27T07:28:06.043Z,53.68
2023-05-27T07:29:05.812Z,53.86
2023-05-27T07:30:05.491Z,53.65
2023-05-27T07:31:05.593Z,54.13
2023-05-27T07:32:05.474Z,53.81
2023-05-27T07:33:05.486Z,53.88
2023-05-27T07:34:05.416Z,54.05
2023-05-27T07:35:05.485Z,53.64
2023-05-27T07:36:05.400Z,54.60
2023-05-27T07:37:05.423Z,54.22
2023-05-27T07:38:05.442Z,54.21
2023-05-27T07:39:05.396Z,53.44
2023-05-27T07:40:05.486Z,53.40
2023-05-27T07:41:05.432Z,53.20
2023-05-27T07:42:05.417Z,53.51
2023-05-27T07:43:05.307Z,53.51
2023-05-27T07:44:05.337Z,54.07
2023-05-27T07:45:05.305Z,53.79
2023-05-27T07:46:05.385Z,54.08
2023-05-27T07:47:05.362Z,53.97
2023-05-27T07:48:05.326Z,53.49
2023-05-27T07:49:05.245Z,54.42
2023-05-27T07:50:05.283Z,52.66
2023-05-27T07:51:05.176Z,52.83
2023-05-27T07:52:05.224Z,51.85
2023-05-27T07:54:05.170Z,52.52
2023-05-27T07:55:05.141Z,52.83
2023-05-27T07:56:05.187Z,53.40
2023-05-27T07:57:05.676Z,53.25
2023-05-27T07:58:05.145Z,53.17
2023-05-27T07:59:05.119Z,53.45
2023-05-27T08:00:05.062Z,53.04
2023-05-27T08:01:05.179Z,53.37
2023-05-27T08:02:05.119Z,53.87
2023-05-27T08:03:05.090Z,53.75
2023-05-27T08:04:16.184Z,52.82
2023-05-27T08:05:05.982Z,53.69
2023-05-27T08:06:05.006Z,53.00
2023-05-27T08:07:04.988Z,52.85
2023-05-27T08:08:04.999Z,52.53
2023-05-27T08:09:05.002Z,53.56
2023-05-27T08:10:04.931Z,54.24
2023-05-27T08:11:04.921Z,53.98
2023-05-27T08:12:04.961Z,54.54
2023-05-27T08:13:04.899Z,53.50
2023-05-27T08:14:04.953Z,54.84
2023-05-27T08:15:04.872Z,53.98
2023-05-27T08:16:04.867Z,52.81
2023-05-27T08:17:04.907Z,52.81
2023-05-27T08:18:04.987Z,52.63
2023-05-27T08:19:04.857Z,52.19
2023-05-27T08:20:04.817Z,52.70
2023-05-27T08:21:05.050Z,52.55
2023-05-27T08:22:05.824Z,52.68
2023-05-27T08:23:04.797Z,51.99
2023-05-27T08:24:04.772Z,52.58
2023-05-27T08:25:04.710Z,54.13
2023-05-27T08:26:04.812Z,54.49
2023-05-27T08:27:04.752Z,52.67
2023-05-27T08:28:04.721Z,51.87
2023-05-27T08:29:04.712Z,51.74
2023-05-27T08:30:04.679Z,51.79
2023-05-27T08:31:04.713Z,51.74
2023-05-27T08:32:04.672Z,52.40
2023-05-27T08:33:04.708Z,52.34
2023-05-27T08:34:04.617Z,52.23
2023-05-27T08:35:04.580Z,52.08
2023-05-27T08:36:04.589Z,52.48
2023-05-27T08:37:04.590Z,50.89
2023-05-27T08:38:04.568Z,51.19
2023-05-27T08:39:04.559Z,51.95
2023-05-27T08:40:04.561Z,52.25
2023-05-27T08:41:04.514Z,52.21
2023-05-27T08:42:04.498Z,51.85
2023-05-27T08:43:04.483Z,50.66
2023-05-27T08:45:04.506Z,51.35
2023-05-27T08:46:04.494Z,51.81
2023-05-27T08:47:04.462Z,51.67
2023-05-27T08:48:04.487Z,52.99
2023-05-27T08:49:04.421Z,52.01
2023-05-27T08:50:04.501Z,51.86
2023-05-27T08:51:04.425Z,51.82
2023-05-27T08:52:04.373Z,51.55
2023-05-27T08:53:04.352Z,51.49
2023-05-27T08:54:04.345Z,50.54
2023-05-27T08:55:04.339Z,50.72
2023-05-27T08:56:04.353Z,51.26
2023-05-27T08:57:04.404Z,51.45
2023-05-27T08:58:04.290Z,52.06
2023-05-27T08:59:04.278Z,52.25
2023-05-27T09:00:04.301Z,49.98
2023-05-27T09:01:04.279Z,50.26
2023-05-27T09:02:04.279Z,50.87
2023-05-27T09:03:04.295Z,50.58
2023-05-27T09:04:04.296Z,51.16
2023-05-27T09:05:04.247Z,50.84
2023-05-27T09:06:18.967Z,51.53
2023-05-27T09:07:04.316Z,52.27
2023-05-27T09:08:04.159Z,50.78
2023-05-27T09:09:04.146Z,51.39
2023-05-27T09:10:04.127Z,49.85
2023-05-27T09:11:04.163Z,49.60
2023-05-27T09:12:04.111Z,49.61
2023-05-27T09:13:04.107Z,50.06
2023-05-27T09:14:04.102Z,50.65
2023-05-27T09:15:04.108Z,50.67
2023-05-27T09:16:04.100Z,49.87
2023-05-27T09:17:04.046Z,49.48
2023-05-27T09:18:04.026Z,50.22
2023-05-27T09:19:04.011Z,50.56
2023-05-27T09:20:04.052Z,51.05
2023-05-27T09:21:03.997Z,49.76
2023-05-27T09:22:03.945Z,49.84
2023-05-27T09:23:03.960Z,50.30
2023-05-27T09:24:03.932Z,52.33
2023-05-27T09:25:03.945Z,53.77
2023-05-27T09:26:03.960Z,57.07
2023-05-27T09:27:03.898Z,54.16
2023-05-27T09:28:03.862Z,53.44
2023-05-27T09:29:03.871Z,54.34
2023-05-27T09:30:03.888Z,56.85
2023-05-27T09:31:03.931Z,54.65
2023-05-27T09:32:03.961Z,55.67
2023-05-27T09:33:04.101Z,57.22
2023-05-27T09:34:03.818Z,57.12
2023-05-27T09:35:03.839Z,54.69
2023-05-27T09:36:03.759Z,56.95
2023-05-27T09:37:03.761Z,56.75
2023-05-27T09:38:03.745Z,57.06
2023-05-27T09:39:03.743Z,56.96
2023-05-27T09:40:03.741Z,55.33
2023-05-27T09:41:03.748Z,55.64
2023-05-27T09:42:03.712Z,55.92
2023-05-27T09:43:03.697Z,56.28
2023-05-27T09:44:03.671Z,56.31
2023-05-27T09:45:03.678Z,54.44
2023-05-27T09:46:03.862Z,53.72
2023-05-27T09:47:03.630Z,56.11
2023-05-27T09:48:03.618Z,56.12
2023-05-27T09:49:03.584Z,56.13
2023-05-27T09:50:03.603Z,55.53
2023-05-27T09:51:03.693Z,56.13
2023-05-27T09:52:03.540Z,55.45
2023-05-27T09:53:11.534Z,55.94
2023-05-27T09:54:04.522Z,54.17
2023-05-27T09:55:03.519Z,54.21
2023-05-27T09:56:03.550Z,55.48
2023-05-27T09:57:03.511Z,55.41
2023-05-27T09:58:03.488Z,48.35
2023-05-27T09:59:03.505Z,48.58
2023-05-27T10:00:03.475Z,46.13
2023-05-27T10:01:03.497Z,46.06
2023-05-27T10:02:03.462Z,46.06
2023-05-27T10:03:03.576Z,46.76
2023-05-27T10:04:03.394Z,49.05
2023-05-27T10:05:03.393Z,47.87
2023-05-27T10:06:03.394Z,48.04
2023-05-27T10:07:03.373Z,46.24
2023-05-27T10:08:13.023Z,46.09
2023-05-27T10:09:04.330Z,44.99
2023-05-27T10:10:03.292Z,46.50
2023-05-27T10:11:03.348Z,44.48
2023-05-27T10:12:03.291Z,44.93
2023-05-27T10:13:03.285Z,46.13
2023-05-27T10:14:03.310Z,45.77
2023-05-27T10:15:03.230Z,46.53
2023-05-27T10:16:03.218Z,45.30
2023-05-27T10:17:03.266Z,43.88
2023-05-27T10:18:03.414Z,43.78
2023-05-27T10:19:03.163Z,44.97
2023-05-27T10:20:03.251Z,45.94
2023-05-27T10:21:03.200Z,45.00
2023-05-27T10:22:03.127Z,44.51
2023-05-27T10:23:03.142Z,44.48
2023-05-27T10:24:03.128Z,44.89
2023-05-27T10:25:03.090Z,44.91
2023-05-27T10:26:03.133Z,45.57
2023-05-27T10:27:03.090Z,44.15
2023-05-27T10:28:03.063Z,44.81
2023-05-27T10:29:03.049Z,43.70
2023-05-27T10:30:03.051Z,44.33
2023-05-27T10:31:03.119Z,43.34
2023-05-27T10:32:03.106Z,43.70
2023-05-27T10:33:03.042Z,45.52
2023-05-27T10:34:02.979Z,45.88
2023-05-27T10:35:02.973Z,44.34
2023-05-27T10:36:02.960Z,43.97
2023-05-27T10:37:02.968Z,44.59
2023-05-27T10:38:02.989Z,44.78
2023-05-27T10:39:02.909Z,43.22
2023-05-27T10:40:02.978Z,43.01
2023-05-27T10:41:03.501Z,42.81
2023-05-27T10:42:14.873Z,42.07
2023-05-27T10:43:03.886Z,42.45
2023-05-27T10:44:02.857Z,42.79
2023-05-27T10:45:02.837Z,42.79
2023-05-27T10:46:02.966Z,42.94
2023-05-27T10:47:02.999Z,42.74
2023-05-27T10:48:02.875Z,44.18
2023-05-27T10:49:02.795Z,43.70
2023-05-27T10:50:02.775Z,45.21
2023-05-27T10:51:02.828Z,46.37
2023-05-27T10:52:02.821Z,44.26
2023-05-27T10:53:02.737Z,44.67
2023-05-27T10:55:02.737Z,44.02
2023-05-27T10:56:02.711Z,46.07
2023-05-27T10:57:02.703Z,44.53
2023-05-27T10:58:02.699Z,49.59
2023-05-27T10:59:02.648Z,48.61
2023-05-27T11:00:05.318Z,47.01
2023-05-27T11:01:02.656Z,45.93
2023-05-27T11:02:02.640Z,43.90
2023-05-27T11:03:02.739Z,44.07
2023-05-27T11:04:02.623Z,42.23
2023-05-27T11:05:02.574Z,43.35
2023-05-27T11:06:02.569Z,41.22
2023-05-27T11:07:04.660Z,40.48
2023-05-27T11:08:02.550Z,41.10
2023-05-27T11:09:02.506Z,42.34
2023-05-27T11:10:02.511Z,42.23
2023-05-27T11:11:02.603Z,43.33
2023-05-27T11:12:02.504Z,40.83
2023-05-27T11:13:02.492Z,41.37
2023-05-27T11:14:02.440Z,44.79
2023-05-27T11:15:02.433Z,45.40
2023-05-27T11:16:02.791Z,41.34
2023-05-27T11:17:02.501Z,43.96
2023-05-27T11:18:02.478Z,41.88
2023-05-27T11:19:02.439Z,42.81
2023-05-27T11:20:09.350Z,43.30
2023-05-27T11:21:02.416Z,41.97
2023-05-27T11:22:02.381Z,41.33
2023-05-27T11:23:02.354Z,41.62
2023-05-27T11:24:02.313Z,40.97
2023-05-27T11:25:02.345Z,40.63
2023-05-27T11:26:02.292Z,41.80
2023-05-27T11:27:02.304Z,40.76
2023-05-27T11:28:02.301Z,43.58
2023-05-27T11:29:02.243Z,40.24
2023-05-27T11:30:02.279Z,41.17
2023-05-27T11:31:02.319Z,41.35
2023-05-27T11:32:02.281Z,42.06
2023-05-27T11:33:02.244Z,42.23
2023-05-27T11:34:02.177Z,42.71
2023-05-27T11:35:02.192Z,41.29
2023-05-27T11:36:02.176Z,41.12
2023-05-27T11:37:02.185Z,39.83
2023-05-27T11:38:02.123Z,41.56
2023-05-27T11:39:02.227Z,40.78
2023-05-27T11:40:02.123Z,40.37
2023-05-27T11:41:02.079Z,41.18
2023-05-27T11:42:02.073Z,41.73
2023-05-27T11:43:02.094Z,42.47
2023-05-27T11:44:02.102Z,42.63
2023-05-27T11:45:02.028Z,42.90
2023-05-27T11:46:02.053Z,42.52
2023-05-27T11:47:02.007Z,44.28
2023-05-27T11:48:02.057Z,47.10
2023-05-27T11:49:02.024Z,47.70
2023-05-27T11:50:01.961Z,49.33
2023-05-27T11:51:01.988Z,47.37
2023-05-27T11:52:01.928Z,42.58
2023-05-27T11:53:01.945Z,46.70
2023-05-27T11:54:02.097Z,44.71
2023-05-27T11:55:01.937Z,48.20
2023-05-27T11:56:01.901Z,45.91
2023-05-27T11:57:01.877Z,46.02
2023-05-27T11:58:01.882Z,43.68
2023-05-27T11:59:01.910Z,45.21
2023-05-27T12:00:01.853Z,43.88
2023-05-27T12:01:01.862Z,42.37
2023-05-27T12:02:01.894Z,43.53
2023-05-27T12:03:01.953Z,41.71
2023-05-27T12:04:01.794Z,42.74
2023-05-27T12:05:01.876Z,43.47
2023-05-27T12:06:01.826Z,44.35
2023-05-27T12:07:05.870Z,45.01
2023-05-27T12:08:02.739Z,44.06
2023-05-27T12:09:01.729Z,43.42
2023-05-27T12:10:01.711Z,43.37
2023-05-27T12:11:01.745Z,46.09
2023-05-27T12:12:01.677Z,47.88
2023-05-27T12:13:01.688Z,45.38
2023-05-27T12:14:01.758Z,44.02
2023-05-27T12:15:01.716Z,44.93
2023-05-27T12:16:01.707Z,46.48
2023-05-27T12:17:01.696Z,42.80
2023-05-27T12:18:01.711Z,44.40
2023-05-27T12:19:01.675Z,43.94
2023-05-27T12:20:01.745Z,45.06
2023-05-27T12:21:01.619Z,44.61
2023-05-27T12:22:01.600Z,44.63
2023-05-27T12:23:01.630Z,45.33
2023-05-27T12:24:01.584Z,49.01
2023-05-27T12:25:01.560Z,41.79
2023-05-27T12:26:01.555Z,42.91
2023-05-27T12:27:01.502Z,42.73
2023-05-27T12:28:01.565Z,46.76
2023-05-27T12:29:01.500Z,41.88
2023-05-27T12:30:01.556Z,42.82
2023-05-27T12:31:01.589Z,43.96
2023-05-27T12:32:01.471Z,46.81
2023-05-27T12:33:01.498Z,42.48
2023-05-27T12:34:01.406Z,41.81
2023-05-27T12:35:01.375Z,41.72
2023-05-27T12:36:01.379Z,42.98
2023-05-27T12:37:01.437Z,42.47
2023-05-27T12:38:01.390Z,42.19
2023-05-27T12:39:01.364Z,41.55
2023-05-27T12:40:01.333Z,41.19
2023-05-27T12:41:01.302Z,42.08
2023-05-27T12:42:01.316Z,40.81
2023-05-27T12:43:01.304Z,43.21
2023-05-27T12:44:01.252Z,39.27
2023-05-27T12:45:01.269Z,39.74
2023-05-27T12:46:01.225Z,38.92
2023-05-27T12:47:01.284Z,38.93
2023-05-27T12:48:01.268Z,38.90
2023-05-27T12:49:01.238Z,41.82
2023-05-27T12:50:01.205Z,40.07
2023-05-27T12:51:01.204Z,40.81
2023-05-27T12:52:01.177Z,41.46
2023-05-27T12:53:01.172Z,40.06
2023-05-27T12:54:01.172Z,41.12
2023-05-27T12:55:01.149Z,40.54